createdAt,value
2018-04-26T00:04:43.872Z,57.60
2018-04-26T00:09:48.555Z,58.10
2018-04-26T00:14:53.064Z,58.40
2018-04-26T00:19:56.540Z,58.40
2018-04-26T00:24:59.616Z,58.60
2018-04-26T00:30:02.972Z,58.50
2018-04-26T00:35:08.212Z,58.60
2018-04-26T00:40:12.653Z,58.90
2018-04-26T00:45:17.621Z,59.00
2018-04-26T00:50:22.602Z,58.90
2018-04-26T00:55:26.452Z,59.00
2018-04-26T01:00:31.767Z,59.20
2018-04-26T01:05:37.914Z,59.10
2018-04-26T01:10:41.741Z,59.10
2018-04-26T01:15:45.549Z,59.20
2018-04-26T01:20:50.358Z,59.00
2018-04-26T01:25:52.955Z,58.50
2018-04-26T01:30:55.786Z,58.60
2018-04-26T01:36:00.776Z,58.20
2018-04-26T01:41:05.563Z,58.10
2018-04-26T01:46:08.500Z,58.10
2018-04-26T01:51:14.501Z,57.80
2018-04-26T01:56:18.014Z,57.60
2018-04-26T02:01:22.156Z,57.40
2018-04-26T02:06:26.237Z,57.60
2018-04-26T02:11:29.551Z,57.80
2018-04-26T02:16:34.082Z,57.70
2018-04-26T02:21:37.798Z,57.90
2018-04-26T02:26:41.198Z,58.10
2018-04-26T02:31:45.755Z,58.20
2018-04-26T02:36:50.712Z,58.80
2018-04-26T02:41:54.168Z,58.60
2018-04-26T02:47:00.498Z,58.80
2018-04-26T02:52:03.499Z,58.90
2018-04-26T02:57:08.528Z,58.80
2018-04-26T03:02:13.969Z,58.90
2018-04-26T03:07:18.358Z,58.70
2018-04-26T03:12:22.774Z,58.80
2018-04-26T03:17:27.159Z,58.80
2018-04-26T03:22:31.025Z,59.00
2018-04-26T03:27:36.241Z,58.60
2018-04-26T03:32:39.521Z,58.50
2018-04-26T03:37:44.103Z,58.50
2018-04-26T03:42:47.814Z,59.10
2018-04-26T03:47:51.903Z,58.60
2018-04-26T03:52:55.174Z,58.70
2018-04-26T03:57:59.300Z,58.30
2018-04-26T04:03:14.408Z,58.50
2018-04-26T04:08:18.652Z,58.20
2018-04-26T04:13:24.331Z,58.70
2018-04-26T04:18:32.171Z,58.60
2018-04-26T04:23:35.373Z,57.40
2018-04-26T04:28:39.474Z,57.10
2018-04-26T04:33:43.307Z,57.10
2018-04-26T04:38:48.235Z,57.30
2018-04-26T04:43:52.195Z,57.30
2018-04-26T04:48:55.324Z,57.50
2018-04-26T04:54:00.769Z,57.70
2018-04-26T04:59:03.324Z,58.10
2018-04-26T05:04:07.695Z,57.20
2018-04-26T05:09:12.482Z,57.40
2018-04-26T05:14:15.760Z,57.20
2018-04-26T05:19:19.338Z,57.50
2018-04-26T05:24:24.711Z,57.70
2018-04-26T05:29:27.240Z,58.30
2018-04-26T05:34:31.409Z,58.60
2018-04-26T05:39:33.937Z,58.60
2018-04-26T05:44:36.843Z,58.60
2018-04-26T05:49:44.216Z,58.60
2018-04-26T05:54:47.949Z,59.20
2018-04-26T05:59:50.784Z,60.60
2018-04-26T06:04:53.357Z,60.80
2018-04-26T06:09:56.801Z,61.40
2018-04-26T06:15:02.409Z,62.90
2018-04-26T06:20:07.618Z,63.70
2018-04-26T06:25:11.051Z,64.00
2018-04-26T06:30:13.557Z,65.30
2018-04-26T06:35:18.781Z,66.20
2018-04-26T06:40:21.775Z,66.80
2018-04-26T06:45:25.030Z,68.00
2018-04-26T06:50:28.521Z,67.30
2018-04-26T06:55:31.714Z,66.30
2018-04-26T07:05:43.648Z,68.90
2018-04-26T07:10:50.048Z,69.50
2018-04-26T07:15:52.929Z,69.10
2018-04-26T07:21:00.012Z,69.30
2018-04-26T07:26:04.393Z,70.40
2018-04-26T07:31:09.753Z,71.30
2018-04-26T07:36:14.816Z,70.10
2018-04-26T07:41:18.234Z,69.70
2018-04-26T07:46:20.822Z,68.80
2018-04-26T07:51:25.792Z,68.90
2018-04-26T07:56:30.122Z,68.20
2018-04-26T08:06:40.765Z,67.80
2018-04-26T08:11:47.816Z,67.50
2018-04-26T08:16:56.977Z,67.40
2018-04-26T08:21:59.516Z,66.00
2018-04-26T08:27:04.549Z,66.10
2018-04-26T08:32:08.635Z,66.00
2018-04-26T08:37:11.746Z,66.70
2018-04-26T08:42:18.581Z,66.20
2018-04-26T08:47:21.519Z,67.00
2018-04-26T08:52:26.178Z,66.10
2018-04-26T08:57:29.606Z,65.50
2018-04-26T09:02:37.029Z,64.30
2018-04-26T09:07:40.321Z,62.80
2018-04-26T09:12:43.941Z,61.40
2018-04-26T09:17:47.458Z,59.40
2018-04-26T09:22:50.128Z,56.60
2018-04-26T09:27:54.092Z,56.10
2018-04-26T09:32:57.216Z,54.20
2018-04-26T09:38:00.689Z,55.40
2018-04-26T09:43:04.174Z,54.80
2018-04-26T09:48:08.996Z,54.60
2018-04-26T09:53:13.957Z,52.50
2018-04-26T09:58:16.611Z,52.50
2018-04-26T10:03:20.500Z,51.60
2018-04-26T10:08:24.519Z,51.60
2018-04-26T10:13:27.224Z,46.40
2018-04-26T10:18:31.531Z,46.30
2018-04-26T10:23:35.129Z,45.20
2018-04-26T10:28:38.544Z,43.90
2018-04-26T10:33:41.842Z,44.60
2018-04-26T10:38:45.220Z,45.70
2018-04-26T10:43:48.075Z,45.90
2018-04-26T10:48:51.427Z,46.40
2018-04-26T10:53:56.688Z,46.80
2018-04-26T10:59:00.483Z,43.90
2018-04-26T11:04:04.170Z,43.80
2018-04-26T11:09:08.926Z,42.00
2018-04-26T11:14:11.676Z,40.20
2018-04-26T11:19:15.382Z,40.40
2018-04-26T11:24:18.947Z,40.60
2018-04-26T11:29:22.741Z,41.30
2018-04-26T11:34:25.929Z,40.70
2018-04-26T11:39:29.398Z,41.50
2018-04-26T11:44:32.744Z,42.00
2018-04-26T11:49:35.309Z,42.00
2018-04-26T11:54:38.238Z,41.10
2018-04-26T11:59:44.273Z,40.50
2018-04-26T12:04:47.840Z,40.30
2018-04-26T12:09:50.794Z,39.10
2018-04-26T12:14:53.697Z,39.00
2018-04-26T12:19:57.873Z,39.80
2018-04-26T12:25:02.155Z,39.70
2018-04-26T12:30:05.237Z,41.70
2018-04-26T12:35:09.191Z,42.90
2018-04-26T12:40:14.073Z,42.30
2018-04-26T12:45:17.126Z,42.20
2018-04-26T12:50:20.020Z,41.40
2018-04-26T12:55:24.015Z,41.50
2018-04-26T13:00:26.951Z,41.70
2018-04-26T13:05:30.537Z,41.40
2018-04-26T13:10:33.314Z,40.40
2018-04-26T13:15:36.050Z,41.00
2018-04-26T13:20:38.816Z,39.90
2018-04-26T13:25:41.987Z,37.90
2018-04-26T13:30:45.501Z,37.30
2018-04-26T13:35:48.383Z,37.70
2018-04-26T13:40:51.961Z,37.50
2018-04-26T13:45:54.729Z,38.40
2018-04-26T13:51:03.177Z,39.70
2018-04-26T13:56:06.042Z,39.10
2018-04-26T14:01:09.427Z,39.50
2018-04-26T14:06:13.169Z,38.80
2018-04-26T14:11:16.571Z,38.50
2018-04-26T14:16:19.332Z,36.20
2018-04-26T14:21:22.423Z,37.90
2018-04-26T14:26:28.497Z,37.70
2018-04-26T14:31:31.449Z,37.10
2018-04-26T14:36:34.091Z,37.10
2018-04-26T14:41:37.654Z,37.40
2018-04-26T14:46:40.397Z,35.10
2018-04-26T14:51:44.057Z,36.20
2018-04-26T14:56:46.936Z,36.80
2018-04-26T15:01:50.580Z,35.60
2018-04-26T15:06:53.097Z,35.50
2018-04-26T15:11:55.685Z,36.10
2018-04-26T15:16:58.200Z,35.10
2018-04-26T15:22:00.719Z,36.20
2018-04-26T15:27:03.276Z,33.30
2018-04-26T15:32:06.409Z,31.90
2018-04-26T15:37:08.939Z,34.00
2018-04-26T15:42:11.661Z,33.70
2018-04-26T15:47:14.302Z,33.70
2018-04-26T15:52:28.912Z,34.30
2018-04-26T15:57:49.337Z,33.90
2018-04-26T16:03:04.755Z,33.70
2018-04-26T16:08:25.104Z,33.70
2018-04-26T16:13:45.927Z,34.30
2018-04-26T16:18:54.825Z,35.00
2018-04-26T16:29:47.869Z,35.00
2018-04-26T16:35:02.563Z,34.20
2018-04-26T16:40:05.473Z,35.10
2018-04-26T16:45:08.367Z,35.60
2018-04-26T16:50:10.973Z,36.20
2018-04-26T16:55:13.652Z,36.40
2018-04-26T17:00:16.509Z,35.60
2018-04-26T17:05:19.489Z,36.00
2018-04-26T17:10:23.373Z,35.60
2018-04-26T17:15:26.152Z,35.60
2018-04-26T17:20:28.588Z,35.40
2018-04-26T17:25:31.456Z,35.80
2018-04-26T17:30:34.114Z,36.50
2018-04-26T17:35:37.287Z,36.30
2018-04-26T17:40:40.237Z,36.00
2018-04-26T17:45:43.788Z,36.20
2018-04-26T17:50:46.387Z,36.80
2018-04-26T17:55:50.604Z,36.60
2018-04-26T18:00:55.204Z,37.00
2018-04-26T18:05:58.951Z,37.40
2018-04-26T18:11:02.991Z,37.40
2018-04-26T18:16:25.372Z,37.70
2018-04-26T18:21:29.277Z,38.00
2018-04-26T18:26:37.024Z,38.50
2018-04-26T18:31:40.804Z,39.00
2018-04-26T18:36:43.657Z,39.30
2018-04-26T18:41:49.292Z,40.10
2018-04-26T18:46:53.715Z,40.10
2018-04-26T18:51:56.612Z,40.30
2018-04-26T18:56:59.375Z,40.10
2018-04-26T19:02:01.919Z,40.80
2018-04-26T19:07:04.587Z,41.00
2018-04-26T19:12:07.751Z,41.30
2018-04-26T19:17:10.730Z,42.10
2018-04-26T19:22:13.541Z,41.80
2018-04-26T19:27:17.930Z,42.20
2018-04-26T19:32:22.892Z,43.70
2018-04-26T19:37:26.442Z,43.70
2018-04-26T19:42:29.261Z,44.60
2018-04-26T19:47:32.301Z,45.20
2018-04-26T19:52:35.788Z,46.10
2018-04-26T19:57:38.511Z,46.70
2018-04-26T20:02:41.621Z,46.40
2018-04-26T20:07:45.279Z,46.70
2018-04-26T20:12:49.104Z,47.10
2018-04-26T20:17:52.446Z,47.40
2018-04-26T20:22:55.417Z,47.70
2018-04-26T20:27:59.180Z,48.00
2018-04-26T20:33:02.377Z,48.30
2018-04-26T20:38:05.471Z,48.50
2018-04-26T20:43:09.363Z,48.50
2018-04-26T20:53:41.416Z,49.20
2018-04-26T20:58:44.060Z,49.10
2018-04-26T21:03:47.392Z,48.90
2018-04-26T21:08:50.947Z,49.20
2018-04-26T21:13:53.780Z,49.10
2018-04-26T21:18:57.321Z,49.40
2018-04-26T21:24:00.229Z,49.40
2018-04-26T21:29:02.808Z,49.50
2018-04-26T21:34:05.336Z,49.60
2018-04-26T21:39:08.314Z,49.70
2018-04-26T21:44:13.428Z,50.20
2018-04-26T21:49:16.454Z,50.50
2018-04-26T21:54:25.730Z,51.00
2018-04-26T21:59:34.098Z,51.20
2018-04-26T22:04:37.178Z,51.50
2018-04-26T22:09:41.371Z,51.60
2018-04-26T22:14:45.566Z,52.40
2018-04-26T22:19:48.114Z,52.40
2018-04-26T22:24:50.861Z,52.40
2018-04-26T22:29:58.390Z,52.70
2018-04-26T22:35:01.626Z,53.10
2018-04-26T22:40:04.721Z,53.20
2018-04-26T22:45:07.690Z,53.50
2018-04-26T22:50:11.028Z,53.80
2018-04-26T22:55:13.980Z,54.40
2018-04-26T23:00:16.584Z,54.40
2018-04-26T23:05:19.147Z,54.00
2018-04-26T23:10:21.663Z,54.50
2018-04-26T23:15:24.392Z,54.50
2018-04-26T23:20:27.276Z,54.70
2018-04-26T23:25:31.499Z,54.70
2018-04-26T23:30:34.913Z,54.70
2018-04-26T23:35:38.298Z,55.10
2018-04-26T23:40:41.942Z,55.10
2018-04-26T23:45:44.927Z,55.50
2018-04-26T23:50:48.219Z,55.90
2018-04-26T23:55:51.918Z,56.20
